sensor_id;sensor_type;location;lat;lon;timestamp;pressure;altitude;pressure_sealevel;temperature;humidity
9462;BME280;4769;42.660;23.262;2023-01-29T00:01:39;94072.22;;;0.40;100.00
9462;BME280;4769;42.660;23.262;2023-01-29T00:04:05;94081.91;;;0.32;100.00
9462;BME280;4769;42.660;23.262;2023-01-29T00:06:34;94080.19;;;0.24;100.00
9462;BME280;4769;42.660;23.262;2023-01-29T00:09:01;94075.19;;;0.22;100.00
9462;BME280;4769;42.660;23.262;2023-01-29T00:11:27;94065.72;;;0.15;100.00
9462;BME280;4769;42.660;23.262;2023-01-29T00:13:55;94080.63;;;0.28;100.00
9462;BME280;4769;42.660;23.262;2023-01-29T00:16:22;94075.72;;;0.18;100.00
9462;BME280;4769;42.660;23.262;2023-01-29T00:18:49;94080.72;;;0.19;100.00
9462;BME280;4769;42.660;23.262;2023-01-29T00:21:17;94085.91;;;0.34;100.00
9462;BME280;4769;42.660;23.262;2023-01-29T00:23:45;94078.69;;;0.15;100.00
9462;BME280;4769;42.660;23.262;2023-01-29T00:26:13;94092.34;;;0.23;100.00
9462;BME280;4769;42.660;23.262;2023-01-29T00:28:40;94088.31;;;0.21;100.00
9462;BME280;4769;42.660;23.262;2023-01-29T00:31:07;94103.63;;;0.31;100.00
9462;BME280;4769;42.660;23.262;2023-01-29T00:33:34;94087.69;;;0.33;100.00
9462;BME280;4769;42.660;23.262;2023-01-29T00:36:03;94093.41;;;0.14;100.00
9462;BME280;4769;42.660;23.262;2023-01-29T00:38:30;94086.88;;;-0.11;100.00
9462;BME280;4769;42.660;23.262;2023-01-29T00:41:04;94078.03;;;-0.02;100.00
9462;BME280;4769;42.660;23.262;2023-01-29T00:43:48;94089.22;;;0.13;100.00
9462;BME280;4769;42.660;23.262;2023-01-29T00:46:32;94113.16;;;0.15;100.00
9462;BME280;4769;42.660;23.262;2023-01-29T00:48:59;94098.41;;;0.01;100.00
9462;BME280;4769;42.660;23.262;2023-01-29T00:51:25;94105.91;;;-0.04;100.00
9462;BME280;4769;42.660;23.262;2023-01-29T00:53:52;94099.72;;;-0.03;100.00
9462;BME280;4769;42.660;23.262;2023-01-29T00:56:24;94089.72;;;0.09;100.00
9462;BME280;4769;42.660;23.262;2023-01-29T00:58:51;94097.44;;;0.03;100.00
9462;BME280;4769;42.660;23.262;2023-01-29T01:01:18;94090.81;;;0.14;100.00
9462;BME280;4769;42.660;23.262;2023-01-29T01:04:05;94092.53;;;0.22;100.00
9462;BME280;4769;42.660;23.262;2023-01-29T01:06:31;94116.13;;;0.13;100.00
9462;BME280;4769;42.660;23.262;2023-01-29T01:08:58;94104.31;;;-0.05;100.00
9462;BME280;4769;42.660;23.262;2023-01-29T01:11:43;94104.94;;;0.12;100.00
9462;BME280;4769;42.660;23.262;2023-01-29T01:14:10;94100.38;;;-0.01;100.00
9462;BME280;4769;42.660;23.262;2023-01-29T01:16:37;94093.22;;;0.01;100.00
9462;BME280;4769;42.660;23.262;2023-01-29T01:19:04;94087.06;;;0.03;100.00
9462;BME280;4769;42.660;23.262;2023-01-29T01:21:31;94089.72;;;0.09;100.00
9462;BME280;4769;42.660;23.262;2023-01-29T01:23:58;94091.38;;;0.10;100.00
9462;BME280;4769;42.660;23.262;2023-01-29T01:26:25;94088.31;;;0.06;100.00
9462;BME280;4769;42.660;23.262;2023-01-29T01:28:53;94094.91;;;0.09;100.00
9462;BME280;4769;42.660;23.262;2023-01-29T01:31:20;94085.44;;;0.01;100.00
9462;BME280;4769;42.660;23.262;2023-01-29T01:33:46;94091.09;;;0.05;100.00
9462;BME280;4769;42.660;23.262;2023-01-29T01:36:15;94094.13;;;0.08;100.00
9462;BME280;4769;42.660;23.262;2023-01-29T01:38:42;94093.41;;;0.00;100.00
9462;BME280;4769;42.660;23.262;2023-01-29T01:41:10;94091.69;;;-0.08;100.00
9462;BME280;4769;42.660;23.262;2023-01-29T01:43:49;94101.59;;;-0.11;100.00
9462;BME280;4769;42.660;23.262;2023-01-29T01:46:17;94097.25;;;-0.11;100.00
9462;BME280;4769;42.660;23.262;2023-01-29T01:48:45;94092.34;;;-0.06;100.00
9462;BME280;4769;42.660;23.262;2023-01-29T01:51:15;94103.03;;;-0.09;100.00
9462;BME280;4769;42.660;23.262;2023-01-29T01:53:43;94115.09;;;-0.01;100.00
9462;BME280;4769;42.660;23.262;2023-01-29T01:56:15;94097.44;;;0.03;100.00
9462;BME280;4769;42.660;23.262;2023-01-29T01:58:46;94099.84;;;0.04;100.00
9462;BME280;4769;42.660;23.262;2023-01-29T02:01:17;94101.97;;;0.00;100.00
9462;BME280;4769;42.660;23.262;2023-01-29T02:03:55;94096.47;;;0.03;100.00
9462;BME280;4769;42.660;23.262;2023-01-29T02:06:42;94104.06;;;0.05;100.00
9462;BME280;4769;42.660;23.262;2023-01-29T02:09:30;94113.69;;;-0.04;100.00
9462;BME280;4769;42.660;23.262;2023-01-29T02:12:01;94102.63;;;0.03;100.00
9462;BME280;4769;42.660;23.262;2023-01-29T02:14:28;94100.47;;;0.06;100.00
9462;BME280;4769;42.660;23.262;2023-01-29T02:16:59;94105.28;;;0.09;100.00
9462;BME280;4769;42.660;23.262;2023-01-29T02:19:35;94101.53;;;0.11;100.00
9462;BME280;4769;42.660;23.262;2023-01-29T02:25:43;94111.31;;;0.24;100.00
9462;BME280;4769;42.660;23.262;2023-01-29T02:28:19;94102.38;;;0.27;100.00
9462;BME280;4769;42.660;23.262;2023-01-29T02:30:58;94107.03;;;0.17;100.00
9462;BME280;4769;42.660;23.262;2023-01-29T02:33:34;94112.75;;;0.27;100.00
9462;BME280;4769;42.660;23.262;2023-01-29T02:36:14;94119.34;;;0.43;100.00
9462;BME280;4769;42.660;23.262;2023-01-29T02:38:48;94124.97;;;0.32;100.00
9462;BME280;4769;42.660;23.262;2023-01-29T02:41:22;94120.25;;;0.22;100.00
9462;BME280;4769;42.660;23.262;2023-01-29T02:43:58;94124.44;;;0.22;100.00
9462;BME280;4769;42.660;23.262;2023-01-29T02:46:34;94129.09;;;0.27;100.00
9462;BME280;4769;42.660;23.262;2023-01-29T02:49:08;94137.41;;;0.22;100.00
9462;BME280;4769;42.660;23.262;2023-01-29T02:51:39;94134.81;;;0.22;100.00
9462;BME280;4769;42.660;23.262;2023-01-29T02:54:15;94132.75;;;0.32;100.00
9462;BME280;4769;42.660;23.262;2023-01-29T02:56:47;94137.75;;;0.19;100.00
9462;BME280;4769;42.660;23.262;2023-01-29T02:59:20;94130.41;;;0.08;100.00
9462;BME280;4769;42.660;23.262;2023-01-29T03:01:51;94122.88;;;-0.01;100.00
9462;BME280;4769;42.660;23.262;2023-01-29T03:04:23;94122.78;;;-0.08;100.00
9462;BME280;4769;42.660;23.262;2023-01-29T03:06:54;94130.28;;;-0.13;100.00
9462;BME280;4769;42.660;23.262;2023-01-29T03:09:27;94131.44;;;-0.15;100.00
9462;BME280;4769;42.660;23.262;2023-01-29T03:12:01;94136.00;;;-0.03;100.00
9462;BME280;4769;42.660;23.262;2023-01-29T03:14:45;94123.84;;;-0.17;100.00
9462;BME280;4769;42.660;23.262;2023-01-29T03:17:32;94127.84;;;-0.14;100.00
9462;BME280;4769;42.660;23.262;2023-01-29T03:20:04;94129.16;;;0.04;100.00
9462;BME280;4769;42.660;23.262;2023-01-29T03:22:34;94135.22;;;0.11;100.00
9462;BME280;4769;42.660;23.262;2023-01-29T03:25:04;94140.78;;;0.08;100.00
9462;BME280;4769;42.660;23.262;2023-01-29T03:27:52;94140.84;;;0.00;100.00
9462;BME280;4769;42.660;23.262;2023-01-29T03:30:44;94150.34;;;0.08;100.00
9462;BME280;4769;42.660;23.262;2023-01-29T03:33:32;94144.00;;;0.10;100.00
9462;BME280;4769;42.660;23.262;2023-01-29T03:36:05;94141.78;;;0.08;100.00
9462;BME280;4769;42.660;23.262;2023-01-29T03:38:34;94144.47;;;0.14;100.00
9462;BME280;4769;42.660;23.262;2023-01-29T03:41:05;94140.28;;;0.28;100.00
9462;BME280;4769;42.660;23.262;2023-01-29T03:43:38;94137.03;;;0.25;100.00
9462;BME280;4769;42.660;23.262;2023-01-29T03:46:10;94134.28;;;0.27;100.00
9462;BME280;4769;42.660;23.262;2023-01-29T03:48:49;94143.31;;;0.31;100.00
9462;BME280;4769;42.660;23.262;2023-01-29T03:51:25;94130.06;;;0.26;100.00
9462;BME280;4769;42.660;23.262;2023-01-29T03:54:01;94130.78;;;0.20;100.00
9462;BME280;4769;42.660;23.262;2023-01-29T03:56:38;94136.19;;;0.33;100.00
9462;BME280;4769;42.660;23.262;2023-01-29T03:59:12;94132.41;;;0.21;100.00
9462;BME280;4769;42.660;23.262;2023-01-29T04:01:44;94126.94;;;0.16;100.00
9462;BME280;4769;42.660;23.262;2023-01-29T04:04:14;94135.97;;;0.20;100.00
9462;BME280;4769;42.660;23.262;2023-01-29T04:06:43;94139.28;;;0.14;100.00
9462;BME280;4769;42.660;23.262;2023-01-29T04:09:15;94140.72;;;0.17;100.00
9462;BME280;4769;42.660;23.262;2023-01-29T04:11:49;94142.94;;;0.19;100.00
9462;BME280;4769;42.660;23.262;2023-01-29T04:14:17;94144.94;;;-0.05;100.00
9462;BME280;4769;42.660;23.262;2023-01-29T04:16:48;94139.59;;;-0.04;100.00
9462;BME280;4769;42.660;23.262;2023-01-29T04:19:16;94135.94;;;-0.09;100.00
9462;BME280;4769;42.660;23.262;2023-01-29T04:21:44;94146.97;;;0.08;100.00
9462;BME280;4769;42.660;23.262;2023-01-29T04:24:14;94155.63;;;0.14;100.00
9462;BME280;4769;42.660;23.262;2023-01-29T04:26:54;94149.94;;;0.19;100.00
9462;BME280;4769;42.660;23.262;2023-01-29T04:29:34;94152.31;;;0.06;100.00
9462;BME280;4769;42.660;23.262;2023-01-29T04:32:09;94154.25;;;0.04;100.00
9462;BME280;4769;42.660;23.262;2023-01-29T04:34:48;94152.31;;;0.06;100.00
9462;BME280;4769;42.660;23.262;2023-01-29T04:37:22;94151.72;;;0.18;100.00
9462;BME280;4769;42.660;23.262;2023-01-29T04:39:58;94150.78;;;0.11;100.00
9462;BME280;4769;42.660;23.262;2023-01-29T04:42:32;94155.13;;;0.33;100.00
9462;BME280;4769;42.660;23.262;2023-01-29T04:45:10;94161.91;;;0.20;100.00
9462;BME280;4769;42.660;23.262;2023-01-29T04:47:47;94151.44;;;0.13;100.00
9462;BME280;4769;42.660;23.262;2023-01-29T04:50:22;94152.31;;;0.20;100.00
9462;BME280;4769;42.660;23.262;2023-01-29T04:52:56;94154.97;;;-0.02;100.00
9462;BME280;4769;42.660;23.262;2023-01-29T04:55:31;94160.91;;;0.21;100.00
9462;BME280;4769;42.660;23.262;2023-01-29T04:58:04;94158.88;;;0.17;100.00
9462;BME280;4769;42.660;23.262;2023-01-29T05:00:37;94163.22;;;0.16;100.00
9462;BME280;4769;42.660;23.262;2023-01-29T05:03:07;94159.94;;;0.37;100.00
9462;BME280;4769;42.660;23.262;2023-01-29T05:05:36;94165.38;;;0.13;100.00
9462;BME280;4769;42.660;23.262;2023-01-29T05:08:05;94163.34;;;0.22;100.00
9462;BME280;4769;42.660;23.262;2023-01-29T05:10:33;94162.88;;;0.19;100.00
9462;BME280;4769;42.660;23.262;2023-01-29T05:13:02;94164.59;;;0.27;100.00
9462;BME280;4769;42.660;23.262;2023-01-29T05:15:34;94162.53;;;0.22;100.00
9462;BME280;4769;42.660;23.262;2023-01-29T05:18:02;94174.88;;;0.20;100.00
9462;BME280;4769;42.660;23.262;2023-01-29T05:20:35;94167.59;;;0.01;100.00
9462;BME280;4769;42.660;23.262;2023-01-29T05:23:04;94172.41;;;0.04;100.00
9462;BME280;4769;42.660;23.262;2023-01-29T05:25:34;94166.81;;;0.15;100.00
9462;BME280;4769;42.660;23.262;2023-01-29T05:28:01;94173.59;;;0.16;100.00
9462;BME280;4769;42.660;23.262;2023-01-29T05:30:31;94158.75;;;0.10;100.00
9462;BME280;4769;42.660;23.262;2023-01-29T05:32:57;94178.44;;;0.33;100.00
9462;BME280;4769;42.660;23.262;2023-01-29T05:35:24;94180.31;;;0.25;100.00
9462;BME280;4769;42.660;23.262;2023-01-29T05:37:54;94185.41;;;0.18;100.00
9462;BME280;4769;42.660;23.262;2023-01-29T05:40:21;94188.00;;;0.18;100.00
9462;BME280;4769;42.660;23.262;2023-01-29T05:42:48;94188.81;;;0.19;100.00
9462;BME280;4769;42.660;23.262;2023-01-29T05:45:15;94182.16;;;0.02;100.00
9462;BME280;4769;42.660;23.262;2023-01-29T05:47:43;94182.38;;;0.29;100.00
9462;BME280;4769;42.660;23.262;2023-01-29T05:50:11;94187.75;;;0.28;100.00
9462;BME280;4769;42.660;23.262;2023-01-29T05:52:38;94190.94;;;0.15;100.00
9462;BME280;4769;42.660;23.262;2023-01-29T05:55:07;94198.44;;;0.10;100.00
9462;BME280;4769;42.660;23.262;2023-01-29T05:57:34;94198.47;;;0.25;100.00
9462;BME280;4769;42.660;23.262;2023-01-29T06:00:03;94194.38;;;0.31;100.00
9462;BME280;4769;42.660;23.262;2023-01-29T06:02:30;94194.06;;;0.11;100.00
9462;BME280;4769;42.660;23.262;2023-01-29T06:04:57;94199.03;;;0.35;100.00
9462;BME280;4769;42.660;23.262;2023-01-29T06:07:24;94204.56;;;0.32;100.00
9462;BME280;4769;42.660;23.262;2023-01-29T06:09:50;94195.00;;;0.32;100.00
9462;BME280;4769;42.660;23.262;2023-01-29T06:12:18;94204.94;;;0.29;100.00
9462;BME280;4769;42.660;23.262;2023-01-29T06:14:45;94190.94;;;0.15;100.00
9462;BME280;4769;42.660;23.262;2023-01-29T06:17:12;94212.22;;;0.25;100.00
9462;BME280;4769;42.660;23.262;2023-01-29T06:19:39;94219.03;;;0.27;100.00
9462;BME280;4769;42.660;23.262;2023-01-29T06:22:06;94215.47;;;0.28;100.00
9462;BME280;4769;42.660;23.262;2023-01-29T06:24:32;94224.50;;;0.32;100.00
9462;BME280;4769;42.660;23.262;2023-01-29T06:26:59;94228.53;;;0.48;100.00
9462;BME280;4769;42.660;23.262;2023-01-29T06:29:27;94237.31;;;0.47;100.00
9462;BME280;4769;42.660;23.262;2023-01-29T06:31:54;94236.91;;;0.59;100.00
9462;BME280;4769;42.660;23.262;2023-01-29T06:34:21;94233.84;;;0.55;100.00
9462;BME280;4769;42.660;23.262;2023-01-29T06:36:48;94230.78;;;0.52;100.00
9462;BME280;4769;42.660;23.262;2023-01-29T06:39:14;94235.72;;;0.47;100.00
9462;BME280;4769;42.660;23.262;2023-01-29T06:41:41;94244.66;;;0.44;100.00
9462;BME280;4769;42.660;23.262;2023-01-29T06:44:09;94243.94;;;0.36;100.00
9462;BME280;4769;42.660;23.262;2023-01-29T06:46:37;94241.34;;;0.36;100.00
9462;BME280;4769;42.660;23.262;2023-01-29T06:49:04;94243.03;;;0.57;100.00
9462;BME280;4769;42.660;23.262;2023-01-29T06:51:31;94250.94;;;0.64;100.00
9462;BME280;4769;42.660;23.262;2023-01-29T06:53:58;94245.41;;;0.67;100.00
9462;BME280;4769;42.660;23.262;2023-01-29T06:56:25;94257.81;;;0.57;100.00
9462;BME280;4769;42.660;23.262;2023-01-29T06:58:51;94244.81;;;0.43;100.00
9462;BME280;4769;42.660;23.262;2023-01-29T07:01:18;94252.44;;;0.44;100.00
9462;BME280;4769;42.660;23.262;2023-01-29T07:03:49;94256.69;;;0.37;100.00
9462;BME280;4769;42.660;23.262;2023-01-29T07:06:16;94255.38;;;0.41;100.00
9462;BME280;4769;42.660;23.262;2023-01-29T07:08:43;94255.91;;;0.37;100.00
9462;BME280;4769;42.660;23.262;2023-01-29T07:11:10;94260.25;;;0.22;100.00
9462;BME280;4769;42.660;23.262;2023-01-29T07:13:36;94255.25;;;0.34;100.00
9462;BME280;4769;42.660;23.262;2023-01-29T07:16:04;94264.00;;;0.56;100.00
9462;BME280;4769;42.660;23.262;2023-01-29T07:18:31;94274.19;;;0.57;100.00
9462;BME280;4769;42.660;23.262;2023-01-29T07:21:03;94281.28;;;0.78;100.00
9462;BME280;4769;42.660;23.262;2023-01-29T07:23:30;94282.34;;;0.55;100.00
9462;BME280;4769;42.660;23.262;2023-01-29T07:25:59;94281.84;;;0.51;100.00
9462;BME280;4769;42.660;23.262;2023-01-29T07:28:26;94278.47;;;0.51;100.00
9462;BME280;4769;42.660;23.262;2023-01-29T07:30:55;94277.66;;;0.50;100.00
9462;BME280;4769;42.660;23.262;2023-01-29T07:33:22;94288.06;;;0.65;100.00
9462;BME280;4769;42.660;23.262;2023-01-29T07:35:48;94281.28;;;0.64;100.00
9462;BME280;4769;42.660;23.262;2023-01-29T07:38:17;94283.00;;;0.71;100.00
9462;BME280;4769;42.660;23.262;2023-01-29T07:40:44;94283.88;;;0.78;100.00
9462;BME280;4769;42.660;23.262;2023-01-29T07:43:10;94285.19;;;0.60;100.00
9462;BME280;4769;42.660;23.262;2023-01-29T07:45:38;94283.88;;;0.64;100.00
9462;BME280;4769;42.660;23.262;2023-01-29T07:48:08;94279.56;;;0.56;100.00
9462;BME280;4769;42.660;23.262;2023-01-29T07:50:36;94286.47;;;0.64;100.00
9462;BME280;4769;42.660;23.262;2023-01-29T07:53:03;94293.75;;;0.83;100.00
9462;BME280;4769;42.660;23.262;2023-01-29T07:55:34;94296.13;;;0.70;100.00
9462;BME280;4769;42.660;23.262;2023-01-29T07:58:02;94294.06;;;0.65;100.00
9462;BME280;4769;42.660;23.262;2023-01-29T08:00:29;94291.81;;;0.62;100.00
9462;BME280;4769;42.660;23.262;2023-01-29T08:03:01;94300.28;;;0.42;100.00
9462;BME280;4769;42.660;23.262;2023-01-29T08:05:29;94303.56;;;0.36;100.00
9462;BME280;4769;42.660;23.262;2023-01-29T08:07:55;94287.75;;;0.45;100.00
9462;BME280;4769;42.660;23.262;2023-01-29T08:10:22;94302.53;;;0.59;100.00
9462;BME280;4769;42.660;23.262;2023-01-29T08:12:54;94306.91;;;0.44;100.00
9462;BME280;4769;42.660;23.262;2023-01-29T08:15:21;94295.53;;;0.45;100.00
9462;BME280;4769;42.660;23.262;2023-01-29T08:17:48;94302.38;;;0.61;100.00
9462;BME280;4769;42.660;23.262;2023-01-29T08:20:15;94309.94;;;0.70;100.00
9462;BME280;4769;42.660;23.262;2023-01-29T08:22:42;94305.19;;;0.74;100.00
9462;BME280;4769;42.660;23.262;2023-01-29T08:25:09;94307.56;;;0.61;100.00
9462;BME280;4769;42.660;23.262;2023-01-29T08:27:37;94308.28;;;0.55;100.00
9462;BME280;4769;42.660;23.262;2023-01-29T08:30:06;94312.59;;;0.77;100.00
9462;BME280;4769;42.660;23.262;2023-01-29T08:32:33;94317.00;;;0.76;100.00
9462;BME280;4769;42.660;23.262;2023-01-29T08:35:00;94313.84;;;0.81;100.00
9462;BME280;4769;42.660;23.262;2023-01-29T08:37:27;94324.72;;;0.99;100.00
9462;BME280;4769;42.660;23.262;2023-01-29T08:39:54;94319.09;;;0.95;100.00
9462;BME280;4769;42.660;23.262;2023-01-29T08:42:20;94333.94;;;0.87;100.00
9462;BME280;4769;42.660;23.262;2023-01-29T08:44:47;94322.31;;;0.60;100.00
9462;BME280;4769;42.660;23.262;2023-01-29T08:47:15;94330.25;;;0.44;100.00
9462;BME280;4769;42.660;23.262;2023-01-29T08:49:42;94326.31;;;0.48;100.00
9462;BME280;4769;42.660;23.262;2023-01-29T08:52:09;94334.31;;;0.61;100.00
9462;BME280;4769;42.660;23.262;2023-01-29T08:54:35;94337.44;;;0.57;100.00
9462;BME280;4769;42.660;23.262;2023-01-29T08:57:02;94346.47;;;0.61;100.00
9462;BME280;4769;42.660;23.262;2023-01-29T08:59:29;94342.91;;;0.62;100.00
9462;BME280;4769;42.660;23.262;2023-01-29T09:01:55;94347.69;;;0.50;100.00
9462;BME280;4769;42.660;23.262;2023-01-29T09:04:24;94346.97;;;0.42;100.00
9462;BME280;4769;42.660;23.262;2023-01-29T09:06:51;94348.59;;;0.34;100.00
9462;BME280;4769;42.660;23.262;2023-01-29T09:09:17;94355.63;;;0.48;100.00
9462;BME280;4769;42.660;23.262;2023-01-29T09:11:47;94353.00;;;0.57;100.00
9462;BME280;4769;42.660;23.262;2023-01-29T09:14:13;94350.06;;;0.60;100.00
9462;BME280;4769;42.660;23.262;2023-01-29T09:16:40;94346.53;;;0.52;100.00
9462;BME280;4769;42.660;23.262;2023-01-29T09:19:07;94338.25;;;0.57;100.00
9462;BME280;4769;42.660;23.262;2023-01-29T09:21:35;94347.09;;;0.63;100.00
9462;BME280;4769;42.660;23.262;2023-01-29T09:24:02;94344.97;;;0.43;100.00
9462;BME280;4769;42.660;23.262;2023-01-29T09:26:29;94338.03;;;0.44;100.00
9462;BME280;4769;42.660;23.262;2023-01-29T09:28:56;94333.06;;;0.34;100.00
9462;BME280;4769;42.660;23.262;2023-01-29T09:31:25;94330.47;;;0.72;100.00
9462;BME280;4769;42.660;23.262;2023-01-29T09:33:52;94333.56;;;0.75;100.00
9462;BME280;4769;42.660;23.262;2023-01-29T09:36:18;94339.19;;;0.79;100.00
9462;BME280;4769;42.660;23.262;2023-01-29T09:38:46;94340.84;;;0.72;100.00
9462;BME280;4769;42.660;23.262;2023-01-29T09:41:27;94334.63;;;0.81;100.00
9462;BME280;4769;42.660;23.262;2023-01-29T09:44:01;94328.81;;;0.93;100.00
9462;BME280;4769;42.660;23.262;2023-01-29T09:46:37;94325.22;;;0.80;100.00
9462;BME280;4769;42.660;23.262;2023-01-29T09:49:10;94314.75;;;0.73;100.00
9462;BME280;4769;42.660;23.262;2023-01-29T09:51:43;94311.53;;;0.86;100.00
9462;BME280;4769;42.660;23.262;2023-01-29T09:54:17;94318.09;;;0.96;100.00
9462;BME280;4769;42.660;23.262;2023-01-29T09:56:49;94306.81;;;1.04;100.00
9462;BME280;4769;42.660;23.262;2023-01-29T09:59:20;94321.59;;;1.18;100.00
9462;BME280;4769;42.660;23.262;2023-01-29T10:01:53;94320.34;;;1.14;100.00
9462;BME280;4769;42.660;23.262;2023-01-29T10:07:52;94318.03;;;1.04;100.00
9462;BME280;4769;42.660;23.262;2023-01-29T10:10:32;94315.44;;;1.04;100.00
9462;BME280;4769;42.660;23.262;2023-01-29T10:13:12;94305.81;;;1.05;100.00
9462;BME280;4769;42.660;23.262;2023-01-29T10:16:03;94308.19;;;1.14;100.00
9462;BME280;4769;42.660;23.262;2023-01-29T10:18:55;94301.53;;;1.12;100.00
9462;BME280;4769;42.660;23.262;2023-01-29T10:21:37;94298.94;;;0.97;100.00
9462;BME280;4769;42.660;23.262;2023-01-29T10:24:15;94291.50;;;1.09;100.00
9462;BME280;4769;42.660;23.262;2023-01-29T10:26:49;94283.53;;;0.81;100.00
9462;BME280;4769;42.660;23.262;2023-01-29T10:29:18;94287.28;;;0.79;100.00
9462;BME280;4769;42.660;23.262;2023-01-29T10:31:51;94290.84;;;0.63;100.00
9462;BME280;4769;42.660;23.262;2023-01-29T10:34:24;94297.75;;;0.71;100.00
9462;BME280;4769;42.660;23.262;2023-01-29T10:36:57;94281.81;;;0.74;100.00
9462;BME280;4769;42.660;23.262;2023-01-29T10:39:28;94279.66;;;0.63;100.00
9462;BME280;4769;42.660;23.262;2023-01-29T10:42:17;94294.69;;;0.67;100.00
9462;BME280;4769;42.660;23.262;2023-01-29T10:44:59;94288.19;;;0.86;100.00
9462;BME280;4769;42.660;23.262;2023-01-29T10:47:49;94287.47;;;0.77;100.00
9462;BME280;4769;42.660;23.262;2023-01-29T10:50:43;94292.53;;;0.71;100.00
9462;BME280;4769;42.660;23.262;2023-01-29T10:53:26;94287.72;;;0.68;100.00
9462;BME280;4769;42.660;23.262;2023-01-29T10:56:08;94277.88;;;0.63;100.00
9462;BME280;4769;42.660;23.262;2023-01-29T10:58:42;94286.31;;;0.80;100.00
9462;BME280;4769;42.660;23.262;2023-01-29T11:01:13;94280.03;;;0.74;100.00
9462;BME280;4769;42.660;23.262;2023-01-29T11:03:40;94280.22;;;0.73;100.00
9462;BME280;4769;42.660;23.262;2023-01-29T11:06:12;94287.81;;;0.74;100.00
9462;BME280;4769;42.660;23.262;2023-01-29T11:08:44;94275.38;;;0.70;100.00
9462;BME280;4769;42.660;23.262;2023-01-29T11:11:13;94280.94;;;0.81;100.00
9462;BME280;4769;42.660;23.262;2023-01-29T11:13:49;94280.06;;;0.89;100.00
9462;BME280;4769;42.660;23.262;2023-01-29T11:16:18;94266.34;;;0.95;100.00
9462;BME280;4769;42.660;23.262;2023-01-29T11:18:54;94281.03;;;1.02;100.00
9462;BME280;4769;42.660;23.262;2023-01-29T11:21:21;94261.69;;;1.05;100.00
9462;BME280;4769;42.660;23.262;2023-01-29T11:23:49;94275.41;;;0.99;100.00
9462;BME280;4769;42.660;23.262;2023-01-29T11:26:18;94265.72;;;0.78;100.00
9462;BME280;4769;42.660;23.262;2023-01-29T11:28:48;94255.69;;;0.61;100.00
9462;BME280;4769;42.660;23.262;2023-01-29T11:31:18;94257.66;;;0.59;100.00
9462;BME280;4769;42.660;23.262;2023-01-29T11:33:46;94255.88;;;0.74;100.00
9462;BME280;4769;42.660;23.262;2023-01-29T11:36:24;94239.16;;;0.76;100.00
9462;BME280;4769;42.660;23.262;2023-01-29T11:39:20;94249.00;;;1.10;100.00
9462;BME280;4769;42.660;23.262;2023-01-29T11:41:50;94239.97;;;1.06;100.00
9462;BME280;4769;42.660;23.262;2023-01-29T11:44:25;94232.78;;;0.79;100.00
9462;BME280;4769;42.660;23.262;2023-01-29T11:46:52;94214.00;;;0.77;100.00
9462;BME280;4769;42.660;23.262;2023-01-29T11:49:25;94228.75;;;0.91;100.00
9462;BME280;4769;42.660;23.262;2023-01-29T11:52:00;94237.38;;;1.06;100.00
9462;BME280;4769;42.660;23.262;2023-01-29T11:54:31;94227.50;;;1.01;100.00
9462;BME280;4769;42.660;23.262;2023-01-29T11:57:01;94222.13;;;0.88;100.00
9462;BME280;4769;42.660;23.262;2023-01-29T11:59:39;94224.72;;;1.03;100.00
9462;BME280;4769;42.660;23.262;2023-01-29T12:02:28;94226.97;;;1.06;100.00
9462;BME280;4769;42.660;23.262;2023-01-29T12:04:58;94231.88;;;1.30;100.00
9462;BME280;4769;42.660;23.262;2023-01-29T12:07:27;94228.84;;;1.12;100.00
9462;BME280;4769;42.660;23.262;2023-01-29T12:09:56;94219.72;;;1.01;100.00
9462;BME280;4769;42.660;23.262;2023-01-29T12:12:34;94223.09;;;1.16;100.00
9462;BME280;4769;42.660;23.262;2023-01-29T12:15:15;94208.59;;;1.22;100.00
9462;BME280;4769;42.660;23.262;2023-01-29T12:17:48;94209.25;;;1.24;100.00
9462;BME280;4769;42.660;23.262;2023-01-29T12:20:22;94212.78;;;1.37;100.00
9462;BME280;4769;42.660;23.262;2023-01-29T12:22:53;94216.81;;;1.40;100.00
9462;BME280;4769;42.660;23.262;2023-01-29T12:25:36;94230.44;;;1.27;100.00
9462;BME280;4769;42.660;23.262;2023-01-29T12:28:09;94228.19;;;1.39;100.00
9462;BME280;4769;42.660;23.262;2023-01-29T12:30:49;94226.19;;;1.41;100.00
9462;BME280;4769;42.660;23.262;2023-01-29T12:33:37;94219.34;;;1.19;100.00
9462;BME280;4769;42.660;23.262;2023-01-29T12:36:09;94213.72;;;1.15;100.00
9462;BME280;4769;42.660;23.262;2023-01-29T12:38:37;94225.84;;;1.44;100.00
9462;BME280;4769;42.660;23.262;2023-01-29T12:41:10;94230.72;;;1.32;100.00
9462;BME280;4769;42.660;23.262;2023-01-29T12:43:43;94225.47;;;1.47;100.00
9462;BME280;4769;42.660;23.262;2023-01-29T12:46:17;94228.06;;;1.47;100.00
9462;BME280;4769;42.660;23.262;2023-01-29T12:48:48;94223.53;;;1.70;100.00
9462;BME280;4769;42.660;23.262;2023-01-29T12:51:18;94224.94;;;1.51;100.00
9462;BME280;4769;42.660;23.262;2023-01-29T12:53:49;94226.59;;;1.38;100.00
9462;BME280;4769;42.660;23.262;2023-01-29T12:56:24;94210.72;;;1.33;100.00
9462;BME280;4769;42.660;23.262;2023-01-29T12:58:53;94215.91;;;1.33;100.00
9462;BME280;4769;42.660;23.262;2023-01-29T13:01:27;94224.69;;;1.32;100.00
9462;BME280;4769;42.660;23.262;2023-01-29T13:03:59;94224.59;;;1.40;100.00
9462;BME280;4769;42.660;23.262;2023-01-29T13:06:30;94228.19;;;1.39;100.00
9462;BME280;4769;42.660;23.262;2023-01-29T13:09:02;94224.00;;;1.38;100.00
9462;BME280;4769;42.660;23.262;2023-01-29T13:11:35;94215.63;;;1.42;100.00
9462;BME280;4769;42.660;23.262;2023-01-29T13:14:07;94219.06;;;1.43;100.00
9462;BME280;4769;42.660;23.262;2023-01-29T13:16:42;94210.22;;;1.58;100.00
9462;BME280;4769;42.660;23.262;2023-01-29T13:19:19;94217.75;;;1.53;100.00
9462;BME280;4769;42.660;23.262;2023-01-29T13:21:49;94210.88;;;1.46;100.00
9462;BME280;4769;42.660;23.262;2023-01-29T13:24:19;94223.91;;;1.67;100.00
9462;BME280;4769;42.660;23.262;2023-01-29T13:26:48;94227.84;;;1.77;100.00
9462;BME280;4769;42.660;23.262;2023-01-29T13:29:21;94219.22;;;1.77;100.00
9462;BME280;4769;42.660;23.262;2023-01-29T13:31:51;94218.66;;;1.46;100.00
9462;BME280;4769;42.660;23.262;2023-01-29T13:34:22;94227.13;;;1.33;100.00
9462;BME280;4769;42.660;23.262;2023-01-29T13:36:51;94219.72;;;1.16;100.00
9462;BME280;4769;42.660;23.262;2023-01-29T13:39:23;94215.25;;;1.10;100.00